Aviation Digital Data Service (ADDS)

Output produced by METARs form (0639 UTC 29 September 2016)
found at http://aviationweather.gov/adds/metars/
 
KJAX 290520Z 2906/3006 22004KT 6SM BR SCT005 SCT025 BKN200 
     FM291400 24006KT P6SM VCSH SCT025 SCT120 
     FM291700 25008KT P6SM VCTS BKN035CB 
     FM300000 24004KT P6SM SCT030 SCT250